Harp Township, Illinois
Current Conditions -  °F | °C
As of 10:15 PM on Sunday 25 Jan 2015 (Local Time) from KAAA Reporting Station
Overcast Overcast  
Wind Chill: 20°   Ceiling: 1900
Heat Index: 29°   Visibility: 10mi
Dew Point: 24°   Wind: 10mph
Humidity: 80%   Direction: 350°N
Pressure: 30"   Gusts: 18mph
Location:  40.143°N, 88.9637°W
Report Text: KAAA 260415Z AUTO 35009G16KT 10SM OVC019 M01/M04 A3000 RMK AO2 T10141045
Loading
Personal Weather Stations






























Interactive Weather Map New forecast layout! Learn more

10-Day Weather Forecast

Advertisements
Track Severe Weather on mobile